createdAt,value
2022-09-23T00:01:02.555Z,100077.66
2022-09-23T00:03:31.127Z,100067.25
2022-09-23T00:06:10.758Z,100064.69
2022-09-23T00:08:38.367Z,100068.72
2022-09-23T00:11:07.763Z,100071.94
2022-09-23T00:13:35.734Z,100074.69
2022-09-23T00:16:04.859Z,100081.50
2022-09-23T00:18:31.778Z,100068.84
2022-09-23T00:20:58.558Z,100069.25
2022-09-23T00:23:25.295Z,100068.66
2022-09-23T00:25:59.740Z,100062.81
2022-09-23T00:28:26.628Z,100062.72
2022-09-23T00:30:53.386Z,100068.22
2022-09-23T00:33:20.446Z,100072.50
2022-09-23T00:35:47.812Z,100067.22
2022-09-23T00:38:14.612Z,100067.22
2022-09-23T00:40:46.165Z,100072.00
2022-09-23T00:43:14.682Z,100074.13
2022-09-23T00:45:47.497Z,100068.13
2022-09-23T00:48:20.137Z,100073.94
2022-09-23T00:50:54.278Z,100072.28
2022-09-23T00:53:24.146Z,100074.59
2022-09-23T00:55:57.315Z,100083.16
2022-09-23T00:58:26.959Z,100088.69
2022-09-23T01:00:54.595Z,100092.25
2022-09-23T01:03:23.016Z,100084.75
2022-09-23T01:05:50.355Z,100087.72
2022-09-23T01:08:17.642Z,100078.69
2022-09-23T01:11:03.461Z,100086.53
2022-09-23T01:13:47.893Z,100089.03
2022-09-23T01:16:33.459Z,100090.38
2022-09-23T01:19:18.263Z,100096.88
2022-09-23T01:22:05.013Z,100096.28
2022-09-23T01:24:48.238Z,100105.22
2022-09-23T01:27:23.256Z,100098.00
2022-09-23T01:30:07.438Z,100102.38
2022-09-23T01:32:43.283Z,100108.16
2022-09-23T01:35:22.815Z,100092.69
2022-09-23T01:38:08.403Z,100100.50
2022-09-23T01:40:59.898Z,100110.59
2022-09-23T01:43:57.225Z,100104.19
2022-09-23T01:46:32.335Z,100098.00
2022-09-23T01:49:37.351Z,100098.81
2022-09-23T01:52:30.023Z,100096.41
2022-09-23T01:55:11.215Z,100093.38
2022-09-23T01:57:44.786Z,100093.00
2022-09-23T02:00:17.785Z,100089.25
2022-09-23T02:03:00.475Z,100098.44
2022-09-23T02:05:33.908Z,100096.59
2022-09-23T02:08:05.055Z,100097.97
2022-09-23T02:10:36.066Z,100103.56
2022-09-23T02:13:07.765Z,100099.59
2022-09-23T02:15:40.408Z,100094.03
2022-09-23T02:18:12.480Z,100101.25
2022-09-23T02:20:43.406Z,100101.47
2022-09-23T02:23:15.799Z,100098.88
2022-09-23T02:25:42.503Z,100091.59
2022-09-23T02:28:13.644Z,100097.44
2022-09-23T02:30:49.215Z,100093.72
2022-09-23T02:33:25.207Z,100084.22
2022-09-23T02:35:55.537Z,100089.84
2022-09-23T02:38:45.297Z,100096.19
2022-09-23T02:41:22.654Z,100091.97
2022-09-23T02:43:55.330Z,100096.91
2022-09-23T02:46:23.263Z,100090.72
2022-09-23T02:48:56.929Z,100093.03
2022-09-23T02:51:27.979Z,100087.50
2022-09-23T02:53:57.678Z,100086.00
2022-09-23T02:56:24.631Z,100084.53
2022-09-23T02:58:53.564Z,100091.63
2022-09-23T03:01:40.818Z,100091.59
2022-09-23T03:04:21.838Z,100089.03
2022-09-23T03:06:54.483Z,100094.06
2022-09-23T03:09:29.865Z,100087.56
2022-09-23T03:12:11.268Z,100097.03
2022-09-23T03:14:41.035Z,100095.53
2022-09-23T03:17:31.796Z,100096.19
2022-09-23T03:20:07.376Z,100095.78
2022-09-23T03:22:39.943Z,100096.03
2022-09-23T03:25:09.841Z,100093.00
2022-09-23T03:27:37.350Z,100096.50
2022-09-23T03:30:05.459Z,100098.59
2022-09-23T03:32:33.030Z,100090.97
2022-09-23T03:35:01.703Z,100094.28
2022-09-23T03:38:02.719Z,100090.94
2022-09-23T03:40:35.645Z,100096.72
2022-09-23T03:43:04.695Z,100085.47
2022-09-23T03:45:33.645Z,100080.34
2022-09-23T03:48:01.488Z,100087.66
2022-09-23T03:50:29.045Z,100082.97
2022-09-23T03:52:56.060Z,100079.84
2022-09-23T03:55:22.818Z,100079.34
2022-09-23T03:57:49.606Z,100093.50
2022-09-23T04:00:16.365Z,100085.09
2022-09-23T04:02:43.934Z,100078.84
2022-09-23T04:05:12.338Z,100074.88
2022-09-23T04:07:39.539Z,100074.06
2022-09-23T04:10:06.791Z,100079.16
2022-09-23T04:12:33.532Z,100085.56
2022-09-23T04:15:00.272Z,100085.69
2022-09-23T04:17:27.083Z,100083.94
2022-09-23T04:19:53.805Z,100078.47
2022-09-23T04:22:20.591Z,100086.34
2022-09-23T04:24:47.293Z,100083.63
2022-09-23T04:27:14.080Z,100081.75
2022-09-23T04:29:40.778Z,100081.81
2022-09-23T04:32:07.564Z,100091.66
2022-09-23T04:34:34.297Z,100097.31
2022-09-23T04:37:01.008Z,100091.84
2022-09-23T04:39:27.723Z,100080.41
2022-09-23T04:41:54.534Z,100083.03
2022-09-23T04:44:21.359Z,100083.25
2022-09-23T04:46:49.386Z,100086.16
2022-09-23T04:49:16.404Z,100082.91
2022-09-23T04:51:43.766Z,100076.06
2022-09-23T04:54:12.012Z,100085.94
2022-09-23T04:56:39.823Z,100078.06
2022-09-23T04:59:07.601Z,100091.56
2022-09-23T05:01:36.362Z,100090.47
2022-09-23T05:04:06.088Z,100091.94
2022-09-23T05:06:37.207Z,100091.09
2022-09-23T05:09:08.137Z,100086.41
2022-09-23T05:11:34.979Z,100093.97
2022-09-23T05:14:01.988Z,100075.41
2022-09-23T05:16:29.464Z,100077.03
2022-09-23T05:18:56.332Z,100086.94
2022-09-23T05:21:24.572Z,100097.03
2022-09-23T05:23:58.902Z,100096.41
2022-09-23T05:26:28.008Z,100096.22
2022-09-23T05:28:55.224Z,100097.66
2022-09-23T05:31:24.176Z,100090.66
2022-09-23T05:34:04.856Z,100094.16
2022-09-23T05:36:37.967Z,100098.28
2022-09-23T05:39:06.794Z,100091.31
2022-09-23T05:41:34.098Z,100100.97
2022-09-23T05:44:01.615Z,100095.41
2022-09-23T05:46:30.000Z,100098.69
2022-09-23T05:49:02.127Z,100104.88
2022-09-23T05:51:31.372Z,100106.25
2022-09-23T05:53:59.008Z,100101.53
2022-09-23T05:56:27.552Z,100107.75
2022-09-23T05:58:56.796Z,100096.88
2022-09-23T06:01:25.581Z,100108.59
2022-09-23T06:03:53.498Z,100105.69
2022-09-23T06:06:26.160Z,100112.88
2022-09-23T06:08:52.888Z,100111.03
2022-09-23T06:11:21.483Z,100105.69
2022-09-23T06:13:49.423Z,100114.34
2022-09-23T06:16:16.567Z,100114.75
2022-09-23T06:18:45.139Z,100124.22
2022-09-23T06:21:16.802Z,100128.09
2022-09-23T06:23:44.341Z,100125.63
2022-09-23T06:26:13.658Z,100125.63
2022-09-23T06:28:42.926Z,100123.59
2022-09-23T06:31:16.844Z,100132.84
2022-09-23T06:33:45.239Z,100134.69
2022-09-23T06:36:16.193Z,100136.28
2022-09-23T06:38:49.338Z,100134.22
2022-09-23T06:41:16.241Z,100139.97
2022-09-23T06:43:42.966Z,100138.75
2022-09-23T06:46:15.984Z,100139.97
2022-09-23T06:48:46.445Z,100128.00
2022-09-23T06:51:19.226Z,100137.88
2022-09-23T06:53:47.436Z,100147.78
2022-09-23T06:56:17.388Z,100136.44
2022-09-23T06:58:44.149Z,100142.34
2022-09-23T07:01:16.147Z,100145.25
2022-09-23T07:03:44.484Z,100154.66
2022-09-23T07:06:11.630Z,100152.22
2022-09-23T07:08:38.433Z,100156.94
2022-09-23T07:11:07.253Z,100156.03
2022-09-23T07:13:34.347Z,100157.84
2022-09-23T07:16:02.245Z,100159.13
2022-09-23T07:18:36.673Z,100164.38
2022-09-23T07:21:08.964Z,100155.66
2022-09-23T07:23:37.804Z,100158.47
2022-09-23T07:26:05.397Z,100159.22
2022-09-23T07:28:32.582Z,100163.19
2022-09-23T07:31:04.532Z,100163.88
2022-09-23T07:33:32.948Z,100159.84
2022-09-23T07:36:05.395Z,100158.63
2022-09-23T07:38:32.202Z,100157.84
2022-09-23T07:41:10.308Z,100162.44
2022-09-23T07:43:37.911Z,100172.66
2022-09-23T07:46:08.364Z,100170.06
2022-09-23T07:48:36.147Z,100176.63
2022-09-23T07:51:15.348Z,100167.06
2022-09-23T07:53:42.174Z,100165.34
2022-09-23T07:56:08.890Z,100162.88
2022-09-23T07:58:35.642Z,100163.69
2022-09-23T08:01:10.316Z,100168.97
2022-09-23T08:03:37.750Z,100169.13
2022-09-23T08:06:14.003Z,100175.88
2022-09-23T08:08:43.787Z,100163.16
2022-09-23T08:11:13.382Z,100167.94
2022-09-23T08:13:40.828Z,100171.78
2022-09-23T08:16:07.675Z,100163.94
2022-09-23T08:18:34.816Z,100170.06
2022-09-23T08:21:01.835Z,100171.03
2022-09-23T08:23:33.374Z,100164.06
2022-09-23T08:26:02.498Z,100162.88
2022-09-23T08:28:30.932Z,100173.78
2022-09-23T08:30:57.744Z,100168.66
2022-09-23T08:33:24.673Z,100172.28
2022-09-23T08:35:52.442Z,100167.34
2022-09-23T08:38:20.106Z,100165.25
2022-09-23T08:40:49.669Z,100166.66
2022-09-23T08:43:27.634Z,100173.84
2022-09-23T08:45:56.145Z,100180.50
2022-09-23T08:48:29.879Z,100178.50
2022-09-23T08:51:02.625Z,100174.53
2022-09-23T08:53:33.269Z,100181.56
2022-09-23T08:56:03.491Z,100183.44
2022-09-23T08:58:30.880Z,100181.56
2022-09-23T09:01:23.776Z,100180.63
2022-09-23T09:04:16.833Z,100187.75
2022-09-23T09:06:54.058Z,100186.81
2022-09-23T09:09:27.499Z,100182.38
2022-09-23T09:12:08.995Z,100185.53
2022-09-23T09:14:35.783Z,100185.19
2022-09-23T09:17:08.209Z,100193.25
2022-09-23T09:19:53.685Z,100193.69
2022-09-23T09:22:34.222Z,100186.66
2022-09-23T09:25:14.466Z,100194.84
2022-09-23T09:27:41.528Z,100184.66
2022-09-23T09:30:14.558Z,100194.03
2022-09-23T09:33:17.827Z,100192.31
2022-09-23T09:36:08.939Z,100180.03
2022-09-23T09:38:36.434Z,100183.81
2022-09-23T09:41:13.114Z,100187.16
2022-09-23T09:43:48.500Z,100180.25
2022-09-23T09:46:49.337Z,100181.16
2022-09-23T09:49:25.526Z,100185.50
2022-09-23T09:52:26.849Z,100183.06
2022-09-23T09:54:53.562Z,100191.16
2022-09-23T09:57:35.126Z,100188.53
2022-09-23T10:00:21.731Z,100186.66
2022-09-23T10:02:56.653Z,100187.06
2022-09-23T10:05:26.889Z,100187.22
2022-09-23T10:07:54.390Z,100182.22
2022-09-23T10:10:33.673Z,100192.66
2022-09-23T10:13:15.009Z,100185.19
2022-09-23T10:15:44.904Z,100182.47
2022-09-23T10:18:21.163Z,100190.31
2022-09-23T10:20:48.373Z,100188.41
2022-09-23T10:23:22.134Z,100184.72
2022-09-23T10:26:00.343Z,100188.56
2022-09-23T10:28:41.258Z,100183.34
2022-09-23T10:31:12.662Z,100184.97
2022-09-23T10:33:50.466Z,100181.72
2022-09-23T10:36:18.140Z,100186.13
2022-09-23T10:38:54.133Z,100178.22
2022-09-23T10:41:53.292Z,100173.16
2022-09-23T10:45:30.874Z,100176.97
2022-09-23T10:48:02.263Z,100174.53
2022-09-23T10:50:46.083Z,100180.81
2022-09-23T10:53:36.541Z,100181.31
2022-09-23T10:56:28.500Z,100179.50
2022-09-23T10:59:21.522Z,100179.09
2022-09-23T11:02:28.815Z,100175.06
2022-09-23T11:05:19.042Z,100179.34
2022-09-23T11:07:49.978Z,100175.78
2022-09-23T11:10:45.839Z,100168.97
2022-09-23T11:13:37.436Z,100174.75
2022-09-23T11:16:31.708Z,100167.88
2022-09-23T11:19:05.110Z,100179.31
2022-09-23T11:22:20.175Z,100178.88
2022-09-23T11:25:05.306Z,100179.66
2022-09-23T11:27:54.350Z,100180.25
2022-09-23T11:30:21.469Z,100170.09
2022-09-23T11:32:56.893Z,100171.72
2022-09-23T11:35:44.803Z,100175.59
2022-09-23T11:38:15.381Z,100171.97
2022-09-23T11:40:46.672Z,100166.34
2022-09-23T11:43:21.717Z,100170.09
2022-09-23T11:46:03.273Z,100163.31
2022-09-23T11:48:49.971Z,100158.44
2022-09-23T11:51:27.120Z,100162.81
2022-09-23T11:54:00.707Z,100163.41
2022-09-23T11:56:37.639Z,100158.84
2022-09-23T11:59:40.471Z,100159.69
2022-09-23T12:02:40.985Z,100164.28
2022-09-23T12:05:17.903Z,100158.69
2022-09-23T12:08:06.417Z,100155.53
2022-09-23T12:10:54.732Z,100161.19
2022-09-23T12:13:37.949Z,100155.53
2022-09-23T12:16:32.645Z,100154.41
2022-09-23T12:19:42.931Z,100149.84
2022-09-23T12:22:18.592Z,100148.00
2022-09-23T12:24:58.259Z,100149.75
2022-09-23T12:27:37.974Z,100154.69
2022-09-23T12:30:13.040Z,100145.25
2022-09-23T12:32:39.901Z,100146.91
2022-09-23T12:35:07.792Z,100156.38
2022-09-23T12:37:35.640Z,100149.84
2022-09-23T12:40:09.926Z,100148.75
2022-09-23T12:42:41.517Z,100142.78
2022-09-23T12:45:32.590Z,100138.44
2022-09-23T12:48:01.085Z,100141.84
2022-09-23T12:50:46.541Z,100137.56
2022-09-23T12:53:34.938Z,100140.59
2022-09-23T12:56:15.366Z,100145.50
2022-09-23T12:58:42.196Z,100150.06
2022-09-23T13:01:18.562Z,100144.97
2022-09-23T13:04:17.275Z,100150.34
2022-09-23T13:06:58.751Z,100145.66
2022-09-23T13:09:31.160Z,100148.63
2022-09-23T13:12:00.738Z,100154.53
2022-09-23T13:14:29.083Z,100157.44
2022-09-23T13:16:58.415Z,100152.16
2022-09-23T13:19:28.256Z,100165.03
2022-09-23T13:21:55.007Z,100163.66
2022-09-23T13:24:31.311Z,100161.41
2022-09-23T13:27:13.310Z,100170.91
2022-09-23T13:29:45.487Z,100171.28
2022-09-23T13:32:15.146Z,100173.69
2022-09-23T13:34:44.324Z,100166.69
2022-09-23T13:37:22.725Z,100164.66
2022-09-23T13:39:50.285Z,100165.56
2022-09-23T13:42:27.217Z,100151.13
2022-09-23T13:44:57.860Z,100158.00
2022-09-23T13:47:27.975Z,100168.00
2022-09-23T13:49:54.877Z,100174.69
2022-09-23T13:52:27.303Z,100163.56
2022-09-23T13:54:54.300Z,100177.03
2022-09-23T13:57:32.128Z,100169.50
2022-09-23T14:00:13.952Z,100170.56
2022-09-23T14:02:44.422Z,100175.06
2022-09-23T14:05:12.728Z,100162.31
2022-09-23T14:07:39.753Z,100163.72
2022-09-23T14:10:08.167Z,100175.03
2022-09-23T14:12:39.274Z,100163.03
2022-09-23T14:15:07.313Z,100158.94
2022-09-23T14:17:34.066Z,100166.38
2022-09-23T14:20:01.110Z,100178.19
2022-09-23T14:22:29.247Z,100171.88
2022-09-23T14:24:56.792Z,100173.50
2022-09-23T14:27:36.185Z,100169.41
2022-09-23T14:30:04.050Z,100181.03
2022-09-23T14:32:31.144Z,100171.31
2022-09-23T14:35:01.077Z,100187.25
2022-09-23T14:37:55.655Z,100185.97
2022-09-23T14:40:26.305Z,100182.03
2022-09-23T14:43:04.933Z,100178.00
2022-09-23T14:45:37.744Z,100187.03
2022-09-23T14:48:09.672Z,100177.56
2022-09-23T14:50:36.960Z,100176.41
2022-09-23T14:53:04.669Z,100176.47
2022-09-23T14:55:31.695Z,100181.28
2022-09-23T14:58:06.510Z,100172.06
2022-09-23T15:00:33.290Z,100169.94
2022-09-23T15:03:02.165Z,100168.81
2022-09-23T15:05:40.119Z,100167.72
2022-09-23T15:08:07.575Z,100170.31
2022-09-23T15:10:40.075Z,100168.63
2022-09-23T15:13:19.247Z,100165.41
2022-09-23T15:15:46.441Z,100164.22
2022-09-23T15:18:22.875Z,100157.16
2022-09-23T15:20:52.344Z,100161.63
2022-09-23T15:23:40.944Z,100164.63
2022-09-23T15:26:47.270Z,100163.84
2022-09-23T15:29:14.194Z,100165.78
2022-09-23T15:31:41.362Z,100170.59
2022-09-23T15:34:10.769Z,100165.84
2022-09-23T15:36:38.610Z,100169.69
2022-09-23T15:39:07.169Z,100173.88
2022-09-23T15:41:34.048Z,100175.38
2022-09-23T15:44:13.835Z,100183.28
2022-09-23T15:46:45.732Z,100180.75
2022-09-23T15:49:27.130Z,100184.19
2022-09-23T15:51:54.510Z,100180.66
2022-09-23T15:54:21.237Z,100179.34
2022-09-23T15:56:48.010Z,100185.88
2022-09-23T15:59:14.772Z,100186.28
2022-09-23T16:01:42.390Z,100189.47
2022-09-23T16:04:10.305Z,100196.13
2022-09-23T16:06:37.645Z,100191.84
2022-09-23T16:09:04.450Z,100192.44
2022-09-23T16:11:34.058Z,100200.38
2022-09-23T16:14:00.882Z,100201.75
2022-09-23T16:16:29.141Z,100202.25
2022-09-23T16:18:55.968Z,100205.09
2022-09-23T16:21:25.253Z,100206.28
2022-09-23T16:23:53.474Z,100202.09
2022-09-23T16:26:21.734Z,100204.56
2022-09-23T16:28:49.629Z,100207.03
2022-09-23T16:31:16.918Z,100207.34
2022-09-23T16:33:48.136Z,100218.41
2022-09-23T16:36:23.656Z,100209.34
2022-09-23T16:38:50.998Z,100213.69
2022-09-23T16:41:17.940Z,100221.19
2022-09-23T16:43:44.766Z,100217.47
2022-09-23T16:46:13.072Z,100217.47
2022-09-23T16:48:40.946Z,100228.97
2022-09-23T16:51:08.946Z,100221.09
2022-09-23T16:53:37.674Z,100218.31
2022-09-23T16:56:09.546Z,100216.59
2022-09-23T16:58:37.176Z,100221.38
2022-09-23T17:01:25.066Z,100219.03
2022-09-23T17:03:52.320Z,100219.44
2022-09-23T17:06:19.453Z,100221.81
2022-09-23T17:08:48.267Z,100226.41
2022-09-23T17:11:16.590Z,100224.78
2022-09-23T17:13:44.287Z,100225.59
2022-09-23T17:16:21.645Z,100218.78
2022-09-23T17:18:48.992Z,100227.41
2022-09-23T17:21:15.843Z,100231.94
2022-09-23T17:23:43.187Z,100230.75
2022-09-23T17:26:10.126Z,100229.66
2022-09-23T17:28:37.010Z,100234.19
2022-09-23T17:31:05.670Z,100224.34
2022-09-23T17:33:35.381Z,100237.47
2022-09-23T17:36:07.270Z,100233.59
2022-09-23T17:38:35.339Z,100235.22
2022-09-23T17:41:02.374Z,100243.78
2022-09-23T17:43:31.458Z,100245.19
2022-09-23T17:46:06.669Z,100241.03
2022-09-23T17:48:35.334Z,100246.97
2022-09-23T17:51:05.082Z,100253.50
2022-09-23T17:53:33.733Z,100241.59
2022-09-23T17:56:04.264Z,100257.03
2022-09-23T17:58:32.915Z,100258.84
2022-09-23T18:01:00.068Z,100250.34
2022-09-23T18:03:28.553Z,100249.44
2022-09-23T18:06:05.050Z,100256.28
2022-09-23T18:08:31.974Z,100257.03
2022-09-23T18:10:58.706Z,100260.31
2022-09-23T18:13:25.481Z,100248.00
2022-09-23T18:15:52.275Z,100254.50
2022-09-23T18:18:19.045Z,100257.16
2022-09-23T18:20:46.066Z,100268.28
2022-09-23T18:23:12.889Z,100272.44
2022-09-23T18:25:40.174Z,100271.78
2022-09-23T18:28:07.113Z,100265.72
2022-09-23T18:30:33.854Z,100276.09
2022-09-23T18:33:01.683Z,100279.88
2022-09-23T18:35:28.555Z,100284.34
2022-09-23T18:37:56.260Z,100283.72
2022-09-23T18:40:23.084Z,100291.25
2022-09-23T18:42:50.414Z,100289.53
2022-09-23T18:45:17.205Z,100292.94
2022-09-23T18:48:02.211Z,100290.72
2022-09-23T18:50:43.172Z,100296.88
2022-09-23T18:53:10.546Z,100302.03
2022-09-23T18:55:37.931Z,100307.16
2022-09-23T18:58:07.358Z,100305.22
2022-09-23T19:00:35.031Z,100304.47
2022-09-23T19:03:02.136Z,100308.63
2022-09-23T19:05:29.141Z,100311.81
2022-09-23T19:07:55.966Z,100309.38
2022-09-23T19:10:22.676Z,100309.72
2022-09-23T19:12:49.477Z,100315.47
2022-09-23T19:15:16.589Z,100309.38
2022-09-23T19:17:44.162Z,100314.84
2022-09-23T19:20:10.907Z,100317.47
2022-09-23T19:22:37.680Z,100314.19
2022-09-23T19:25:04.710Z,100327.88
2022-09-23T19:27:31.503Z,100323.41
2022-09-23T19:29:58.241Z,100322.25
2022-09-23T19:32:26.778Z,100316.59
2022-09-23T19:34:53.719Z,100323.50
2022-09-23T19:37:58.991Z,100319.03
2022-09-23T19:40:25.800Z,100320.81
2022-09-23T19:42:55.252Z,100317.97
2022-09-23T19:45:22.598Z,100326.88
2022-09-23T19:47:58.296Z,100332.03
2022-09-23T19:50:25.133Z,100339.25
2022-09-23T19:52:52.226Z,100336.97
2022-09-23T19:55:20.098Z,100336.97
2022-09-23T19:57:47.340Z,100342.72
2022-09-23T20:00:15.259Z,100334.53
2022-09-23T20:02:42.596Z,100339.31
2022-09-23T20:05:11.990Z,100345.47
2022-09-23T20:07:41.133Z,100338.53
2022-09-23T20:10:11.836Z,100343.31
2022-09-23T20:12:40.791Z,100350.56
2022-09-23T20:15:08.136Z,100351.53
2022-09-23T20:17:35.254Z,100355.75
2022-09-23T20:20:02.237Z,100361.13
2022-09-23T20:22:33.143Z,100359.13
2022-09-23T20:25:01.566Z,100354.72
2022-09-23T20:27:31.751Z,100354.75
2022-09-23T20:29:59.421Z,100359.03
2022-09-23T20:32:27.109Z,100369.59
2022-09-23T20:34:54.428Z,100368.06
2022-09-23T20:37:21.670Z,100360.44
2022-09-23T20:39:48.484Z,100363.34
2022-09-23T20:42:16.429Z,100360.16
2022-09-23T20:44:44.950Z,100365.00
2022-09-23T20:47:15.907Z,100375.09
2022-09-23T20:49:44.296Z,100372.91
2022-09-23T20:52:12.651Z,100365.00
2022-09-23T20:54:39.829Z,100374.66
2022-09-23T20:57:07.058Z,100383.88
2022-09-23T20:59:34.614Z,100380.53
2022-09-23T21:02:02.319Z,100379.25
2022-09-23T21:04:30.260Z,100376.56
2022-09-23T21:06:58.287Z,100381.56
2022-09-23T21:09:27.489Z,100381.22
2022-09-23T21:11:55.476Z,100384.50
2022-09-23T21:14:23.147Z,100380.16
2022-09-23T21:16:54.947Z,100376.66
2022-09-23T21:19:21.839Z,100383.41
2022-09-23T21:21:48.711Z,100385.69
2022-09-23T21:24:51.097Z,100386.00
2022-09-23T21:27:03.476Z,100389.50
2022-09-23T21:29:30.260Z,100388.50
2022-09-23T21:31:57.272Z,100386.00
2022-09-23T21:34:28.168Z,100390.47
2022-09-23T21:36:55.510Z,100394.56
2022-09-23T21:39:22.262Z,100389.34
2022-09-23T21:41:49.978Z,100383.97
2022-09-23T21:44:16.753Z,100387.53
2022-09-23T21:46:43.604Z,100391.69
2022-09-23T21:49:10.369Z,100383.44
2022-09-23T21:51:41.152Z,100393.38
2022-09-23T21:54:12.203Z,100395.78
2022-09-23T21:56:39.046Z,100397.69
2022-09-23T21:59:07.744Z,100391.94
2022-09-23T22:01:40.946Z,100397.09
2022-09-23T22:04:14.513Z,100397.25
2022-09-23T22:06:41.705Z,100395.19
2022-09-23T22:09:12.557Z,100401.25
2022-09-23T22:11:58.757Z,100393.66
2022-09-23T22:14:26.552Z,100396.06
2022-09-23T22:16:57.570Z,100394.75
2022-09-23T22:19:26.968Z,100397.31
2022-09-23T22:21:54.040Z,100392.25
2022-09-23T22:24:21.025Z,100395.63
2022-09-23T22:26:48.011Z,100391.13
2022-09-23T22:29:34.470Z,100396.81
2022-09-23T22:32:20.924Z,100396.22
2022-09-23T22:34:51.363Z,100402.00
2022-09-23T22:37:25.802Z,100406.41
2022-09-23T22:39:53.260Z,100402.78
2022-09-23T22:42:21.928Z,100402.72
2022-09-23T22:44:49.200Z,100396.63
2022-09-23T22:47:18.125Z,100402.81
2022-09-23T22:49:46.408Z,100399.22
2022-09-23T22:52:14.990Z,100397.91
2022-09-23T22:54:42.351Z,100396.38
2022-09-23T22:57:09.805Z,100397.25
2022-09-23T22:59:37.527Z,100402.47
2022-09-23T23:02:05.176Z,100391.88
2022-09-23T23:04:32.260Z,100400.34
2022-09-23T23:06:59.093Z,100407.22
2022-09-23T23:09:25.985Z,100396.69
2022-09-23T23:11:52.770Z,100405.38
2022-09-23T23:14:19.812Z,100402.91
2022-09-23T23:16:47.533Z,100399.66
2022-09-23T23:19:17.178Z,100399.63
2022-09-23T23:21:45.302Z,100401.31
2022-09-23T23:24:20.840Z,100410.81
2022-09-23T23:26:48.350Z,100405.47
2022-09-23T23:29:16.461Z,100403.59
2022-09-23T23:31:43.693Z,100407.22
2022-09-23T23:34:16.283Z,100403.16
2022-09-23T23:36:44.041Z,100398.59
2022-09-23T23:39:11.078Z,100401.88
2022-09-23T23:41:39.613Z,100401.88
2022-09-23T23:44:07.842Z,100397.03
2022-09-23T23:46:35.845Z,100399.31
2022-09-23T23:49:03.291Z,100405.91
2022-09-23T23:51:30.196Z,100415.38
2022-09-23T23:53:58.915Z,100407.13
2022-09-23T23:56:26.875Z,100409.22
2022-09-23T23:58:55.476Z,100405.09
